sensor_id;sensor_type;location;lat;lon;timestamp;P1;durP1;ratioP1;P2;durP2;ratioP2
53411;SDS011;39307;52.870;13.660;2024-01-30T00:00:32;3.53;;;2.20;;
53411;SDS011;39307;52.870;13.660;2024-01-30T00:02:59;3.75;;;2.30;;
53411;SDS011;39307;52.870;13.660;2024-01-30T00:05:25;2.72;;;1.90;;
53411;SDS011;39307;52.870;13.660;2024-01-30T00:07:52;3.40;;;2.20;;
53411;SDS011;39307;52.870;13.660;2024-01-30T00:10:19;3.20;;;2.00;;
53411;SDS011;39307;52.870;13.660;2024-01-30T00:12:46;3.28;;;2.10;;
53411;SDS011;39307;52.870;13.660;2024-01-30T00:15:13;3.08;;;1.98;;
53411;SDS011;39307;52.870;13.660;2024-01-30T00:17:40;3.43;;;2.20;;
53411;SDS011;39307;52.870;13.660;2024-01-30T00:20:07;3.55;;;2.20;;
53411;SDS011;39307;52.870;13.660;2024-01-30T00:22:34;3.70;;;2.17;;
53411;SDS011;39307;52.870;13.660;2024-01-30T00:25:01;3.28;;;2.00;;
53411;SDS011;39307;52.870;13.660;2024-01-30T00:27:28;3.45;;;2.20;;
53411;SDS011;39307;52.870;13.660;2024-01-30T00:29:55;3.75;;;2.15;;
53411;SDS011;39307;52.870;13.660;2024-01-30T00:32:22;3.53;;;2.27;;
53411;SDS011;39307;52.870;13.660;2024-01-30T00:34:48;3.38;;;2.30;;
53411;SDS011;39307;52.870;13.660;2024-01-30T00:37:15;3.47;;;2.20;;
53411;SDS011;39307;52.870;13.660;2024-01-30T00:39:42;3.80;;;2.27;;
53411;SDS011;39307;52.870;13.660;2024-01-30T00:42:09;3.33;;;2.20;;
53411;SDS011;39307;52.870;13.660;2024-01-30T00:44:35;3.90;;;2.30;;
53411;SDS011;39307;52.870;13.660;2024-01-30T00:47:02;3.38;;;2.15;;
53411;SDS011;39307;52.870;13.660;2024-01-30T00:49:29;3.73;;;2.43;;
53411;SDS011;39307;52.870;13.660;2024-01-30T00:51:56;3.40;;;2.17;;
53411;SDS011;39307;52.870;13.660;2024-01-30T00:54:23;3.85;;;2.50;;
53411;SDS011;39307;52.870;13.660;2024-01-30T00:56:50;3.65;;;2.30;;
53411;SDS011;39307;52.870;13.660;2024-01-30T00:59:17;3.25;;;2.10;;
53411;SDS011;39307;52.870;13.660;2024-01-30T01:01:43;3.50;;;2.15;;
53411;SDS011;39307;52.870;13.660;2024-01-30T01:04:10;3.77;;;2.40;;
53411;SDS011;39307;52.870;13.660;2024-01-30T01:06:37;2.88;;;2.03;;
53411;SDS011;39307;52.870;13.660;2024-01-30T01:09:04;3.53;;;2.30;;
53411;SDS011;39307;52.870;13.660;2024-01-30T01:11:30;3.85;;;2.28;;
53411;SDS011;39307;52.870;13.660;2024-01-30T01:13:57;4.00;;;2.42;;
53411;SDS011;39307;52.870;13.660;2024-01-30T01:16:24;3.42;;;2.10;;
53411;SDS011;39307;52.870;13.660;2024-01-30T01:18:50;3.83;;;2.50;;
53411;SDS011;39307;52.870;13.660;2024-01-30T01:21:17;3.90;;;2.40;;
53411;SDS011;39307;52.870;13.660;2024-01-30T01:23:44;3.40;;;2.22;;
53411;SDS011;39307;52.870;13.660;2024-01-30T01:26:11;3.50;;;2.30;;
53411;SDS011;39307;52.870;13.660;2024-01-30T01:28:39;3.63;;;2.20;;
53411;SDS011;39307;52.870;13.660;2024-01-30T01:31:09;4.07;;;2.45;;
53411;SDS011;39307;52.870;13.660;2024-01-30T01:33:36;3.53;;;2.20;;
53411;SDS011;39307;52.870;13.660;2024-01-30T01:36:03;3.83;;;2.40;;
53411;SDS011;39307;52.870;13.660;2024-01-30T01:38:30;3.75;;;2.30;;
53411;SDS011;39307;52.870;13.660;2024-01-30T01:40:57;3.57;;;2.23;;
53411;SDS011;39307;52.870;13.660;2024-01-30T01:43:24;3.67;;;2.35;;
53411;SDS011;39307;52.870;13.660;2024-01-30T01:45:51;3.53;;;2.30;;
53411;SDS011;39307;52.870;13.660;2024-01-30T01:48:18;3.80;;;2.40;;
53411;SDS011;39307;52.870;13.660;2024-01-30T01:50:45;3.83;;;2.33;;
53411;SDS011;39307;52.870;13.660;2024-01-30T01:53:12;4.07;;;2.40;;
53411;SDS011;39307;52.870;13.660;2024-01-30T01:55:39;3.72;;;2.20;;
53411;SDS011;39307;52.870;13.660;2024-01-30T01:58:06;3.83;;;2.40;;
53411;SDS011;39307;52.870;13.660;2024-01-30T02:00:34;4.10;;;2.70;;
53411;SDS011;39307;52.870;13.660;2024-01-30T02:03:02;4.20;;;2.60;;
53411;SDS011;39307;52.870;13.660;2024-01-30T02:05:31;3.47;;;2.40;;
53411;SDS011;39307;52.870;13.660;2024-01-30T02:07:58;3.55;;;2.35;;
53411;SDS011;39307;52.870;13.660;2024-01-30T02:10:25;3.95;;;2.47;;
53411;SDS011;39307;52.870;13.660;2024-01-30T02:12:52;3.92;;;2.50;;
53411;SDS011;39307;52.870;13.660;2024-01-30T02:15:19;3.80;;;2.60;;
53411;SDS011;39307;52.870;13.660;2024-01-30T02:17:46;3.80;;;2.30;;
53411;SDS011;39307;52.870;13.660;2024-01-30T02:20:12;3.10;;;2.03;;
53411;SDS011;39307;52.870;13.660;2024-01-30T02:22:39;3.03;;;1.90;;
53411;SDS011;39307;52.870;13.660;2024-01-30T02:25:07;3.53;;;2.00;;
53411;SDS011;39307;52.870;13.660;2024-01-30T02:27:34;3.83;;;2.28;;
53411;SDS011;39307;52.870;13.660;2024-01-30T02:30:01;3.87;;;2.30;;
53411;SDS011;39307;52.870;13.660;2024-01-30T02:32:28;3.83;;;2.27;;
53411;SDS011;39307;52.870;13.660;2024-01-30T02:34:55;3.30;;;2.10;;
53411;SDS011;39307;52.870;13.660;2024-01-30T02:37:22;3.95;;;2.45;;
53411;SDS011;39307;52.870;13.660;2024-01-30T02:39:48;3.58;;;2.25;;
53411;SDS011;39307;52.870;13.660;2024-01-30T02:42:15;3.88;;;2.30;;
53411;SDS011;39307;52.870;13.660;2024-01-30T02:44:42;4.10;;;2.42;;
53411;SDS011;39307;52.870;13.660;2024-01-30T02:47:09;3.50;;;2.40;;
53411;SDS011;39307;52.870;13.660;2024-01-30T02:49:36;3.40;;;2.20;;
53411;SDS011;39307;52.870;13.660;2024-01-30T02:52:03;3.45;;;2.25;;
53411;SDS011;39307;52.870;13.660;2024-01-30T02:54:30;3.80;;;2.42;;
53411;SDS011;39307;52.870;13.660;2024-01-30T02:56:57;3.85;;;2.50;;
53411;SDS011;39307;52.870;13.660;2024-01-30T02:59:24;4.38;;;2.40;;
53411;SDS011;39307;52.870;13.660;2024-01-30T03:01:50;3.50;;;2.40;;
53411;SDS011;39307;52.870;13.660;2024-01-30T03:04:17;4.28;;;2.65;;
53411;SDS011;39307;52.870;13.660;2024-01-30T03:06:47;3.72;;;2.42;;
53411;SDS011;39307;52.870;13.660;2024-01-30T03:09:15;3.63;;;2.27;;
53411;SDS011;39307;52.870;13.660;2024-01-30T03:11:43;3.85;;;2.30;;
53411;SDS011;39307;52.870;13.660;2024-01-30T03:14:09;3.30;;;2.20;;
53411;SDS011;39307;52.870;13.660;2024-01-30T03:16:37;4.17;;;2.50;;
53411;SDS011;39307;52.870;13.660;2024-01-30T03:19:05;4.25;;;2.63;;
53411;SDS011;39307;52.870;13.660;2024-01-30T03:21:33;3.87;;;2.30;;
53411;SDS011;39307;52.870;13.660;2024-01-30T03:23:59;4.25;;;2.47;;
53411;SDS011;39307;52.870;13.660;2024-01-30T03:26:26;4.13;;;2.67;;
53411;SDS011;39307;52.870;13.660;2024-01-30T03:28:53;3.92;;;2.25;;
53411;SDS011;39307;52.870;13.660;2024-01-30T03:31:20;4.00;;;2.80;;
53411;SDS011;39307;52.870;13.660;2024-01-30T03:33:47;4.00;;;2.47;;
53411;SDS011;39307;52.870;13.660;2024-01-30T03:36:15;4.05;;;2.47;;
53411;SDS011;39307;52.870;13.660;2024-01-30T03:38:42;3.70;;;2.60;;
53411;SDS011;39307;52.870;13.660;2024-01-30T03:41:08;4.10;;;2.67;;
53411;SDS011;39307;52.870;13.660;2024-01-30T03:43:36;3.67;;;2.30;;
53411;SDS011;39307;52.870;13.660;2024-01-30T03:46:03;4.10;;;2.70;;
53411;SDS011;39307;52.870;13.660;2024-01-30T03:48:30;4.10;;;2.45;;
53411;SDS011;39307;52.870;13.660;2024-01-30T03:50:57;3.90;;;2.50;;
53411;SDS011;39307;52.870;13.660;2024-01-30T03:53:24;3.70;;;2.40;;
53411;SDS011;39307;52.870;13.660;2024-01-30T03:55:51;3.90;;;2.47;;
53411;SDS011;39307;52.870;13.660;2024-01-30T03:58:18;3.70;;;2.50;;
53411;SDS011;39307;52.870;13.660;2024-01-30T04:00:44;3.97;;;2.50;;
53411;SDS011;39307;52.870;13.660;2024-01-30T04:03:11;4.20;;;2.50;;
53411;SDS011;39307;52.870;13.660;2024-01-30T04:05:38;4.07;;;2.75;;
53411;SDS011;39307;52.870;13.660;2024-01-30T04:08:05;4.75;;;2.92;;
53411;SDS011;39307;52.870;13.660;2024-01-30T04:10:32;4.07;;;2.75;;
53411;SDS011;39307;52.870;13.660;2024-01-30T04:12:59;4.65;;;3.00;;
53411;SDS011;39307;52.870;13.660;2024-01-30T04:15:26;4.10;;;2.70;;
53411;SDS011;39307;52.870;13.660;2024-01-30T04:17:52;4.68;;;2.92;;
53411;SDS011;39307;52.870;13.660;2024-01-30T04:20:19;4.03;;;2.53;;
53411;SDS011;39307;52.870;13.660;2024-01-30T04:22:45;3.93;;;2.60;;
53411;SDS011;39307;52.870;13.660;2024-01-30T04:25:13;4.60;;;2.90;;
53411;SDS011;39307;52.870;13.660;2024-01-30T04:27:40;4.15;;;2.70;;
53411;SDS011;39307;52.870;13.660;2024-01-30T04:30:07;4.13;;;2.70;;
53411;SDS011;39307;52.870;13.660;2024-01-30T04:32:34;4.18;;;2.65;;
53411;SDS011;39307;52.870;13.660;2024-01-30T04:35:01;4.55;;;2.80;;
53411;SDS011;39307;52.870;13.660;2024-01-30T04:37:29;4.18;;;2.70;;
53411;SDS011;39307;52.870;13.660;2024-01-30T04:39:56;4.45;;;2.72;;
53411;SDS011;39307;52.870;13.660;2024-01-30T04:42:23;4.00;;;2.70;;
53411;SDS011;39307;52.870;13.660;2024-01-30T04:44:50;4.18;;;2.78;;
53411;SDS011;39307;52.870;13.660;2024-01-30T04:47:16;4.63;;;2.90;;
53411;SDS011;39307;52.870;13.660;2024-01-30T04:49:43;4.55;;;2.83;;
53411;SDS011;39307;52.870;13.660;2024-01-30T04:52:10;4.13;;;2.70;;
53411;SDS011;39307;52.870;13.660;2024-01-30T04:54:37;4.50;;;2.80;;
53411;SDS011;39307;52.870;13.660;2024-01-30T04:57:04;4.53;;;2.90;;
53411;SDS011;39307;52.870;13.660;2024-01-30T04:59:31;4.53;;;2.90;;
53411;SDS011;39307;52.870;13.660;2024-01-30T05:01:58;5.50;;;3.13;;
53411;SDS011;39307;52.870;13.660;2024-01-30T05:04:25;4.28;;;2.80;;
53411;SDS011;39307;52.870;13.660;2024-01-30T05:06:52;4.43;;;2.80;;
53411;SDS011;39307;52.870;13.660;2024-01-30T05:09:18;4.57;;;3.10;;
53411;SDS011;39307;52.870;13.660;2024-01-30T05:11:45;4.33;;;2.90;;
53411;SDS011;39307;52.870;13.660;2024-01-30T05:14:12;4.43;;;2.78;;
53411;SDS011;39307;52.870;13.660;2024-01-30T05:16:39;4.32;;;2.85;;
53411;SDS011;39307;52.870;13.660;2024-01-30T05:19:06;4.85;;;2.88;;
53411;SDS011;39307;52.870;13.660;2024-01-30T05:21:33;4.10;;;2.30;;
53411;SDS011;39307;52.870;13.660;2024-01-30T05:24:00;3.65;;;2.30;;
53411;SDS011;39307;52.870;13.660;2024-01-30T05:26:26;4.20;;;2.70;;
53411;SDS011;39307;52.870;13.660;2024-01-30T05:28:53;3.90;;;2.50;;
53411;SDS011;39307;52.870;13.660;2024-01-30T05:31:20;3.85;;;2.50;;
53411;SDS011;39307;52.870;13.660;2024-01-30T05:33:47;3.95;;;2.30;;
53411;SDS011;39307;52.870;13.660;2024-01-30T05:36:13;3.90;;;2.50;;
53411;SDS011;39307;52.870;13.660;2024-01-30T05:38:40;4.03;;;2.50;;
53411;SDS011;39307;52.870;13.660;2024-01-30T05:41:08;4.18;;;2.53;;
53411;SDS011;39307;52.870;13.660;2024-01-30T05:43:35;4.18;;;2.67;;
53411;SDS011;39307;52.870;13.660;2024-01-30T05:46:01;3.92;;;2.50;;
53411;SDS011;39307;52.870;13.660;2024-01-30T05:48:28;4.00;;;2.45;;
53411;SDS011;39307;52.870;13.660;2024-01-30T05:50:55;4.10;;;2.60;;
53411;SDS011;39307;52.870;13.660;2024-01-30T05:53:22;4.63;;;3.10;;
53411;SDS011;39307;52.870;13.660;2024-01-30T05:55:49;4.65;;;2.80;;
53411;SDS011;39307;52.870;13.660;2024-01-30T05:58:15;5.03;;;2.95;;
53411;SDS011;39307;52.870;13.660;2024-01-30T06:00:42;4.30;;;2.95;;
53411;SDS011;39307;52.870;13.660;2024-01-30T06:03:09;4.60;;;2.85;;
53411;SDS011;39307;52.870;13.660;2024-01-30T06:05:36;4.67;;;2.90;;
53411;SDS011;39307;52.870;13.660;2024-01-30T06:08:03;4.32;;;2.65;;
53411;SDS011;39307;52.870;13.660;2024-01-30T06:10:30;4.60;;;2.83;;
53411;SDS011;39307;52.870;13.660;2024-01-30T06:12:57;3.95;;;2.55;;
53411;SDS011;39307;52.870;13.660;2024-01-30T06:15:24;4.50;;;3.05;;
53411;SDS011;39307;52.870;13.660;2024-01-30T06:17:51;4.28;;;2.90;;
53411;SDS011;39307;52.870;13.660;2024-01-30T06:20:18;4.20;;;2.80;;
53411;SDS011;39307;52.870;13.660;2024-01-30T06:22:45;4.20;;;2.85;;
53411;SDS011;39307;52.870;13.660;2024-01-30T06:25:12;4.38;;;2.80;;
53411;SDS011;39307;52.870;13.660;2024-01-30T06:27:39;4.25;;;2.70;;
53411;SDS011;39307;52.870;13.660;2024-01-30T06:30:06;4.75;;;2.95;;
53411;SDS011;39307;52.870;13.660;2024-01-30T06:32:33;4.30;;;2.75;;
53411;SDS011;39307;52.870;13.660;2024-01-30T06:35:01;4.35;;;2.70;;
53411;SDS011;39307;52.870;13.660;2024-01-30T06:37:28;4.53;;;2.72;;
53411;SDS011;39307;52.870;13.660;2024-01-30T06:39:55;3.85;;;2.60;;
53411;SDS011;39307;52.870;13.660;2024-01-30T06:42:22;4.60;;;2.80;;
53411;SDS011;39307;52.870;13.660;2024-01-30T06:44:48;4.28;;;2.75;;
53411;SDS011;39307;52.870;13.660;2024-01-30T06:47:15;4.60;;;2.75;;
53411;SDS011;39307;52.870;13.660;2024-01-30T06:49:42;4.40;;;3.00;;
53411;SDS011;39307;52.870;13.660;2024-01-30T06:52:09;4.75;;;3.15;;
53411;SDS011;39307;52.870;13.660;2024-01-30T06:54:36;4.25;;;2.67;;
53411;SDS011;39307;52.870;13.660;2024-01-30T06:57:02;4.63;;;2.92;;
53411;SDS011;39307;52.870;13.660;2024-01-30T06:59:29;4.68;;;2.88;;
53411;SDS011;39307;52.870;13.660;2024-01-30T07:01:57;4.37;;;3.00;;
53411;SDS011;39307;52.870;13.660;2024-01-30T07:04:24;4.47;;;2.88;;
53411;SDS011;39307;52.870;13.660;2024-01-30T07:06:51;3.90;;;2.60;;
53411;SDS011;39307;52.870;13.660;2024-01-30T07:09:17;4.47;;;2.90;;
53411;SDS011;39307;52.870;13.660;2024-01-30T07:11:44;4.18;;;2.78;;
53411;SDS011;39307;52.870;13.660;2024-01-30T07:14:11;4.38;;;2.80;;
53411;SDS011;39307;52.870;13.660;2024-01-30T07:16:38;4.47;;;2.90;;
53411;SDS011;39307;52.870;13.660;2024-01-30T07:19:04;4.93;;;3.03;;
53411;SDS011;39307;52.870;13.660;2024-01-30T07:21:31;5.00;;;3.03;;
53411;SDS011;39307;52.870;13.660;2024-01-30T07:23:58;4.50;;;2.95;;
53411;SDS011;39307;52.870;13.660;2024-01-30T07:26:25;4.40;;;2.97;;
53411;SDS011;39307;52.870;13.660;2024-01-30T07:28:52;3.92;;;2.70;;
53411;SDS011;39307;52.870;13.660;2024-01-30T07:31:19;5.22;;;3.53;;
53411;SDS011;39307;52.870;13.660;2024-01-30T07:33:45;5.13;;;3.30;;
53411;SDS011;39307;52.870;13.660;2024-01-30T07:36:12;4.60;;;2.92;;
53411;SDS011;39307;52.870;13.660;2024-01-30T07:38:39;4.60;;;2.95;;
53411;SDS011;39307;52.870;13.660;2024-01-30T07:41:06;4.97;;;3.20;;
53411;SDS011;39307;52.870;13.660;2024-01-30T07:43:33;4.73;;;3.20;;
53411;SDS011;39307;52.870;13.660;2024-01-30T07:46:00;4.80;;;3.20;;
53411;SDS011;39307;52.870;13.660;2024-01-30T07:48:26;4.70;;;3.10;;
53411;SDS011;39307;52.870;13.660;2024-01-30T07:50:53;4.90;;;3.20;;
53411;SDS011;39307;52.870;13.660;2024-01-30T07:53:20;4.77;;;3.20;;
53411;SDS011;39307;52.870;13.660;2024-01-30T07:55:47;4.57;;;3.20;;
53411;SDS011;39307;52.870;13.660;2024-01-30T07:58:14;4.78;;;3.17;;
53411;SDS011;39307;52.870;13.660;2024-01-30T08:00:41;5.00;;;3.30;;
53411;SDS011;39307;52.870;13.660;2024-01-30T08:03:08;5.30;;;3.30;;
53411;SDS011;39307;52.870;13.660;2024-01-30T08:05:34;4.70;;;2.90;;
53411;SDS011;39307;52.870;13.660;2024-01-30T08:08:01;4.53;;;3.00;;
53411;SDS011;39307;52.870;13.660;2024-01-30T08:10:28;4.05;;;2.75;;
53411;SDS011;39307;52.870;13.660;2024-01-30T08:12:55;4.47;;;2.80;;
53411;SDS011;39307;52.870;13.660;2024-01-30T08:15:22;4.07;;;2.57;;
53411;SDS011;39307;52.870;13.660;2024-01-30T08:17:49;4.28;;;2.70;;
53411;SDS011;39307;52.870;13.660;2024-01-30T08:20:16;3.88;;;2.63;;
53411;SDS011;39307;52.870;13.660;2024-01-30T08:22:43;4.82;;;3.00;;
53411;SDS011;39307;52.870;13.660;2024-01-30T08:25:10;4.20;;;2.80;;
53411;SDS011;39307;52.870;13.660;2024-01-30T08:27:37;4.75;;;3.10;;
53411;SDS011;39307;52.870;13.660;2024-01-30T08:30:04;4.68;;;2.97;;
53411;SDS011;39307;52.870;13.660;2024-01-30T08:32:32;4.57;;;2.80;;
53411;SDS011;39307;52.870;13.660;2024-01-30T08:34:59;4.10;;;2.78;;
53411;SDS011;39307;52.870;13.660;2024-01-30T08:37:26;4.57;;;2.80;;
53411;SDS011;39307;52.870;13.660;2024-01-30T08:39:53;4.47;;;2.93;;
53411;SDS011;39307;52.870;13.660;2024-01-30T08:42:19;4.60;;;3.03;;
53411;SDS011;39307;52.870;13.660;2024-01-30T08:44:46;4.40;;;2.80;;
53411;SDS011;39307;52.870;13.660;2024-01-30T08:47:13;4.53;;;2.90;;
53411;SDS011;39307;52.870;13.660;2024-01-30T08:49:40;4.00;;;2.78;;
53411;SDS011;39307;52.870;13.660;2024-01-30T08:52:07;4.55;;;3.20;;
53411;SDS011;39307;52.870;13.660;2024-01-30T08:54:34;4.53;;;2.97;;
53411;SDS011;39307;52.870;13.660;2024-01-30T08:57:01;4.20;;;2.67;;
53411;SDS011;39307;52.870;13.660;2024-01-30T08:59:28;4.83;;;3.13;;
53411;SDS011;39307;52.870;13.660;2024-01-30T09:01:54;5.07;;;3.20;;
53411;SDS011;39307;52.870;13.660;2024-01-30T09:04:21;4.40;;;2.90;;
53411;SDS011;39307;52.870;13.660;2024-01-30T09:06:48;4.97;;;3.23;;
53411;SDS011;39307;52.870;13.660;2024-01-30T09:09:15;4.87;;;3.27;;
53411;SDS011;39307;52.870;13.660;2024-01-30T09:11:42;4.63;;;3.10;;
53411;SDS011;39307;52.870;13.660;2024-01-30T09:14:10;4.30;;;3.00;;
53411;SDS011;39307;52.870;13.660;2024-01-30T09:16:36;4.70;;;3.20;;
53411;SDS011;39307;52.870;13.660;2024-01-30T09:19:03;4.90;;;3.20;;
53411;SDS011;39307;52.870;13.660;2024-01-30T09:21:30;4.60;;;3.00;;
53411;SDS011;39307;52.870;13.660;2024-01-30T09:24:06;4.50;;;2.90;;
53411;SDS011;39307;52.870;13.660;2024-01-30T09:26:33;4.80;;;3.10;;
53411;SDS011;39307;52.870;13.660;2024-01-30T09:29:00;4.75;;;3.13;;
53411;SDS011;39307;52.870;13.660;2024-01-30T09:31:26;4.72;;;3.17;;
53411;SDS011;39307;52.870;13.660;2024-01-30T09:33:53;4.93;;;3.20;;
53411;SDS011;39307;52.870;13.660;2024-01-30T09:36:20;4.45;;;2.97;;
53411;SDS011;39307;52.870;13.660;2024-01-30T09:38:47;4.68;;;3.10;;
53411;SDS011;39307;52.870;13.660;2024-01-30T09:41:13;4.75;;;3.20;;
53411;SDS011;39307;52.870;13.660;2024-01-30T09:43:40;4.82;;;3.25;;
53411;SDS011;39307;52.870;13.660;2024-01-30T09:46:14;4.80;;;3.10;;
53411;SDS011;39307;52.870;13.660;2024-01-30T09:48:42;5.07;;;3.15;;
53411;SDS011;39307;52.870;13.660;2024-01-30T09:51:11;4.72;;;3.20;;
53411;SDS011;39307;52.870;13.660;2024-01-30T09:53:41;5.10;;;3.30;;
53411;SDS011;39307;52.870;13.660;2024-01-30T09:56:08;5.18;;;3.30;;
53411;SDS011;39307;52.870;13.660;2024-01-30T09:58:36;4.70;;;3.22;;
53411;SDS011;39307;52.870;13.660;2024-01-30T10:01:02;4.63;;;3.10;;
53411;SDS011;39307;52.870;13.660;2024-01-30T10:03:29;5.10;;;3.33;;
53411;SDS011;39307;52.870;13.660;2024-01-30T10:05:56;4.68;;;3.10;;
53411;SDS011;39307;52.870;13.660;2024-01-30T10:08:24;5.15;;;3.33;;
53411;SDS011;39307;52.870;13.660;2024-01-30T10:10:53;4.60;;;3.20;;
53411;SDS011;39307;52.870;13.660;2024-01-30T10:13:20;5.45;;;3.33;;
53411;SDS011;39307;52.870;13.660;2024-01-30T10:15:47;4.68;;;3.22;;
53411;SDS011;39307;52.870;13.660;2024-01-30T10:18:14;4.88;;;3.20;;
53411;SDS011;39307;52.870;13.660;2024-01-30T10:20:41;5.33;;;3.50;;
53411;SDS011;39307;52.870;13.660;2024-01-30T10:23:07;5.35;;;3.30;;
53411;SDS011;39307;52.870;13.660;2024-01-30T10:25:35;5.10;;;3.22;;
53411;SDS011;39307;52.870;13.660;2024-01-30T10:28:03;5.10;;;3.25;;
53411;SDS011;39307;52.870;13.660;2024-01-30T10:30:30;4.53;;;3.05;;
53411;SDS011;39307;52.870;13.660;2024-01-30T10:32:57;4.80;;;3.35;;
53411;SDS011;39307;52.870;13.660;2024-01-30T10:35:24;4.88;;;3.30;;
53411;SDS011;39307;52.870;13.660;2024-01-30T10:37:50;4.77;;;3.10;;
53411;SDS011;39307;52.870;13.660;2024-01-30T10:40:17;4.88;;;3.20;;
53411;SDS011;39307;52.870;13.660;2024-01-30T10:42:55;4.82;;;3.15;;
53411;SDS011;39307;52.870;13.660;2024-01-30T10:45:22;4.80;;;3.22;;
53411;SDS011;39307;52.870;13.660;2024-01-30T10:47:50;5.25;;;3.42;;
53411;SDS011;39307;52.870;13.660;2024-01-30T10:50:22;5.22;;;3.60;;
53411;SDS011;39307;52.870;13.660;2024-01-30T10:52:51;5.00;;;3.50;;
53411;SDS011;39307;52.870;13.660;2024-01-30T10:55:21;4.78;;;3.33;;
53411;SDS011;39307;52.870;13.660;2024-01-30T10:57:50;5.10;;;3.30;;
53411;SDS011;39307;52.870;13.660;2024-01-30T11:00:17;5.00;;;2.90;;
53411;SDS011;39307;52.870;13.660;2024-01-30T11:02:45;4.45;;;2.80;;
53411;SDS011;39307;52.870;13.660;2024-01-30T11:05:13;4.43;;;2.90;;
53411;SDS011;39307;52.870;13.660;2024-01-30T11:07:40;4.35;;;2.70;;
53411;SDS011;39307;52.870;13.660;2024-01-30T11:10:07;4.70;;;2.90;;
53411;SDS011;39307;52.870;13.660;2024-01-30T11:12:37;4.68;;;3.10;;
53411;SDS011;39307;52.870;13.660;2024-01-30T11:15:06;4.68;;;3.10;;
53411;SDS011;39307;52.870;13.660;2024-01-30T11:17:43;4.65;;;2.92;;
53411;SDS011;39307;52.870;13.660;2024-01-30T11:20:19;4.60;;;3.03;;
53411;SDS011;39307;52.870;13.660;2024-01-30T11:22:55;4.80;;;3.05;;
53411;SDS011;39307;52.870;13.660;2024-01-30T11:25:23;4.60;;;3.00;;
53411;SDS011;39307;52.870;13.660;2024-01-30T11:27:54;4.30;;;2.95;;
53411;SDS011;39307;52.870;13.660;2024-01-30T11:30:25;4.38;;;2.90;;
53411;SDS011;39307;52.870;13.660;2024-01-30T11:33:04;4.60;;;3.00;;
53411;SDS011;39307;52.870;13.660;2024-01-30T11:35:36;4.30;;;2.90;;
53411;SDS011;39307;52.870;13.660;2024-01-30T11:38:06;5.10;;;3.10;;
53411;SDS011;39307;52.870;13.660;2024-01-30T11:40:35;4.95;;;3.33;;
53411;SDS011;39307;52.870;13.660;2024-01-30T11:43:04;4.70;;;3.13;;
53411;SDS011;39307;52.870;13.660;2024-01-30T11:45:33;5.10;;;3.40;;
53411;SDS011;39307;52.870;13.660;2024-01-30T11:48:01;5.10;;;3.20;;
53411;SDS011;39307;52.870;13.660;2024-01-30T11:50:34;5.38;;;3.40;;
53411;SDS011;39307;52.870;13.660;2024-01-30T11:53:04;5.00;;;3.30;;
53411;SDS011;39307;52.870;13.660;2024-01-30T11:55:31;4.75;;;3.40;;
53411;SDS011;39307;52.870;13.660;2024-01-30T11:57:59;5.07;;;3.55;;
53411;SDS011;39307;52.870;13.660;2024-01-30T12:00:26;5.27;;;3.50;;
53411;SDS011;39307;52.870;13.660;2024-01-30T12:02:54;5.07;;;3.60;;
53411;SDS011;39307;52.870;13.660;2024-01-30T12:05:22;4.60;;;3.13;;
53411;SDS011;39307;52.870;13.660;2024-01-30T12:07:50;5.25;;;3.30;;
53411;SDS011;39307;52.870;13.660;2024-01-30T12:10:17;5.32;;;3.47;;
53411;SDS011;39307;52.870;13.660;2024-01-30T12:12:45;5.47;;;3.60;;
53411;SDS011;39307;52.870;13.660;2024-01-30T12:15:15;5.63;;;3.35;;
53411;SDS011;39307;52.870;13.660;2024-01-30T12:17:44;4.85;;;3.30;;
53411;SDS011;39307;52.870;13.660;2024-01-30T12:20:11;5.50;;;3.33;;
53411;SDS011;39307;52.870;13.660;2024-01-30T12:22:41;6.15;;;3.63;;
53411;SDS011;39307;52.870;13.660;2024-01-30T12:25:20;5.30;;;3.22;;
53411;SDS011;39307;52.870;13.660;2024-01-30T12:27:47;5.15;;;3.72;;
53411;SDS011;39307;52.870;13.660;2024-01-30T12:30:16;4.97;;;3.17;;
53411;SDS011;39307;52.870;13.660;2024-01-30T12:32:45;5.50;;;3.72;;
53411;SDS011;39307;52.870;13.660;2024-01-30T12:35:15;5.63;;;3.55;;
53411;SDS011;39307;52.870;13.660;2024-01-30T12:37:44;5.28;;;3.55;;
53411;SDS011;39307;52.870;13.660;2024-01-30T12:40:13;6.18;;;3.72;;
53411;SDS011;39307;52.870;13.660;2024-01-30T12:42:41;5.32;;;3.60;;
53411;SDS011;39307;52.870;13.660;2024-01-30T12:45:08;5.78;;;3.40;;
53411;SDS011;39307;52.870;13.660;2024-01-30T12:47:35;5.77;;;3.67;;
53411;SDS011;39307;52.870;13.660;2024-01-30T12:50:02;5.30;;;3.40;;
53411;SDS011;39307;52.870;13.660;2024-01-30T12:52:29;5.43;;;3.70;;
53411;SDS011;39307;52.870;13.660;2024-01-30T12:54:56;5.10;;;3.42;;
53411;SDS011;39307;52.870;13.660;2024-01-30T12:57:23;5.75;;;3.70;;
53411;SDS011;39307;52.870;13.660;2024-01-30T12:59:50;5.70;;;3.78;;
53411;SDS011;39307;52.870;13.660;2024-01-30T13:02:17;5.40;;;3.63;;
53411;SDS011;39307;52.870;13.660;2024-01-30T13:04:44;5.03;;;3.63;;
53411;SDS011;39307;52.870;13.660;2024-01-30T13:07:12;5.28;;;3.55;;
53411;SDS011;39307;52.870;13.660;2024-01-30T13:09:38;5.97;;;3.53;;
53411;SDS011;39307;52.870;13.660;2024-01-30T13:12:05;5.35;;;3.70;;
53411;SDS011;39307;52.870;13.660;2024-01-30T13:14:32;5.25;;;3.60;;
53411;SDS011;39307;52.870;13.660;2024-01-30T13:16:59;5.20;;;3.60;;
53411;SDS011;39307;52.870;13.660;2024-01-30T13:19:26;5.60;;;3.87;;
53411;SDS011;39307;52.870;13.660;2024-01-30T13:21:53;5.85;;;3.80;;
53411;SDS011;39307;52.870;13.660;2024-01-30T13:24:19;5.70;;;3.70;;
53411;SDS011;39307;52.870;13.660;2024-01-30T13:26:46;5.85;;;3.70;;
53411;SDS011;39307;52.870;13.660;2024-01-30T13:29:13;5.55;;;3.78;;
53411;SDS011;39307;52.870;13.660;2024-01-30T13:31:40;5.40;;;3.50;;
53411;SDS011;39307;52.870;13.660;2024-01-30T13:34:07;5.55;;;3.80;;
53411;SDS011;39307;52.870;13.660;2024-01-30T13:36:34;5.20;;;3.50;;
53411;SDS011;39307;52.870;13.660;2024-01-30T13:39:00;5.68;;;3.90;;
53411;SDS011;39307;52.870;13.660;2024-01-30T13:41:27;5.47;;;3.70;;
53411;SDS011;39307;52.870;13.660;2024-01-30T13:43:54;4.53;;;3.03;;
53411;SDS011;39307;52.870;13.660;2024-01-30T13:46:21;4.75;;;3.08;;
53411;SDS011;39307;52.870;13.660;2024-01-30T13:48:48;5.13;;;3.25;;
53411;SDS011;39307;52.870;13.660;2024-01-30T13:51:16;4.80;;;3.30;;
53411;SDS011;39307;52.870;13.660;2024-01-30T13:53:42;5.30;;;3.40;;
53411;SDS011;39307;52.870;13.660;2024-01-30T13:56:09;4.85;;;3.20;;
53411;SDS011;39307;52.870;13.660;2024-01-30T13:58:36;4.78;;;3.35;;
53411;SDS011;39307;52.870;13.660;2024-01-30T14:01:03;5.18;;;3.30;;
53411;SDS011;39307;52.870;13.660;2024-01-30T14:03:29;4.70;;;3.20;;
53411;SDS011;39307;52.870;13.660;2024-01-30T14:05:56;5.33;;;3.40;;
53411;SDS011;39307;52.870;13.660;2024-01-30T14:08:23;5.38;;;3.40;;
53411;SDS011;39307;52.870;13.660;2024-01-30T14:10:50;4.97;;;3.50;;
53411;SDS011;39307;52.870;13.660;2024-01-30T14:13:17;5.32;;;3.50;;
53411;SDS011;39307;52.870;13.660;2024-01-30T14:15:44;5.50;;;3.60;;
53411;SDS011;39307;52.870;13.660;2024-01-30T14:18:11;5.50;;;3.60;;
53411;SDS011;39307;52.870;13.660;2024-01-30T14:20:38;5.60;;;3.60;;
53411;SDS011;39307;52.870;13.660;2024-01-30T14:23:05;5.07;;;3.50;;
53411;SDS011;39307;52.870;13.660;2024-01-30T14:25:31;5.03;;;3.30;;
53411;SDS011;39307;52.870;13.660;2024-01-30T14:27:58;4.90;;;3.40;;
53411;SDS011;39307;52.870;13.660;2024-01-30T14:30:25;5.18;;;3.40;;
53411;SDS011;39307;52.870;13.660;2024-01-30T14:32:52;5.63;;;3.50;;